createdAt,value
2023-01-29T00:00:21.788Z,91.26
2023-01-29T00:03:30.302Z,91.40
2023-01-29T00:06:38.912Z,91.28
2023-01-29T00:09:47.277Z,91.02
2023-01-29T00:13:02.263Z,91.04
2023-01-29T00:16:10.305Z,91.16
2023-01-29T00:19:19.148Z,91.00
2023-01-29T00:22:27.281Z,90.77
2023-01-29T00:25:44.936Z,90.49
2023-01-29T00:28:47.011Z,90.33
2023-01-29T00:32:01.490Z,90.96
2023-01-29T00:35:10.302Z,91.38
2023-01-29T00:38:25.902Z,91.90
2023-01-29T00:41:36.286Z,91.33
2023-01-29T00:44:51.354Z,91.76
2023-01-29T00:48:03.975Z,92.14
2023-01-29T00:51:33.308Z,92.45
2023-01-29T00:54:41.751Z,93.03
2023-01-29T00:57:50.363Z,93.39
2023-01-29T01:01:08.288Z,93.79
2023-01-29T01:04:11.573Z,94.16
2023-01-29T01:07:38.091Z,94.54
2023-01-29T01:10:41.880Z,94.58
2023-01-29T01:13:56.285Z,95.29
2023-01-29T01:16:58.196Z,95.58
2023-01-29T01:20:14.493Z,95.89
2023-01-29T01:23:29.324Z,95.99
2023-01-29T01:26:37.728Z,95.76
2023-01-29T01:29:46.281Z,95.93
2023-01-29T01:32:55.459Z,95.72
2023-01-29T01:36:08.288Z,95.67
2023-01-29T01:39:31.250Z,95.84
2023-01-29T01:42:47.319Z,95.99
2023-01-29T01:45:55.357Z,97.12
2023-01-29T01:49:11.037Z,97.78
2023-01-29T01:52:21.296Z,98.12
2023-01-29T01:55:31.945Z,98.32
2023-01-29T02:03:32.265Z,98.73
2023-01-29T02:06:48.248Z,99.33
2023-01-29T02:10:12.288Z,99.95
2023-01-29T02:13:21.416Z,100.00
2023-01-29T02:16:30.301Z,100.00
2023-01-29T02:19:47.982Z,99.96
2023-01-29T02:23:22.300Z,99.62
2023-01-29T02:26:56.862Z,99.08
2023-01-29T02:30:17.660Z,98.58
2023-01-29T02:33:45.755Z,97.93
2023-01-29T02:37:11.320Z,98.12
2023-01-29T02:40:41.313Z,97.49
2023-01-29T02:44:11.372Z,97.27
2023-01-29T02:47:32.723Z,97.56
2023-01-29T02:50:55.357Z,97.12
2023-01-29T02:54:06.252Z,97.43
2023-01-29T02:57:29.363Z,97.41
2023-01-29T03:00:50.364Z,97.72
2023-01-29T03:04:14.307Z,97.95
2023-01-29T03:07:38.309Z,97.86
2023-01-29T03:10:47.116Z,97.52
2023-01-29T03:14:11.280Z,98.04
2023-01-29T03:17:14.792Z,98.37
2023-01-29T03:20:35.294Z,98.76
2023-01-29T03:24:21.387Z,98.77
2023-01-29T03:27:40.308Z,98.99
2023-01-29T03:30:54.315Z,98.43
2023-01-29T03:34:14.909Z,98.13
2023-01-29T03:37:40.625Z,97.30
2023-01-29T03:41:00.332Z,96.68
2023-01-29T03:44:18.820Z,96.95
2023-01-29T03:47:50.307Z,97.01
2023-01-29T03:51:07.664Z,96.97
2023-01-29T03:54:31.311Z,96.35
2023-01-29T03:57:50.053Z,96.30
2023-01-29T04:01:06.446Z,95.63
2023-01-29T04:04:27.570Z,95.51
2023-01-29T04:07:37.326Z,95.27
2023-01-29T04:10:59.281Z,95.57
2023-01-29T04:14:09.246Z,95.61
2023-01-29T04:17:37.713Z,95.29
2023-01-29T04:20:46.668Z,94.58
2023-01-29T04:24:01.353Z,93.75
2023-01-29T04:27:19.694Z,93.62
2023-01-29T04:30:51.550Z,92.97
2023-01-29T04:34:23.326Z,92.83
2023-01-29T04:37:43.632Z,92.45
2023-01-29T04:41:18.275Z,92.32
2023-01-29T04:44:30.224Z,91.83
2023-01-29T04:48:04.339Z,91.98
2023-01-29T04:51:17.993Z,91.58
2023-01-29T04:54:47.320Z,91.75
2023-01-29T04:58:13.570Z,91.31
2023-01-29T05:01:25.314Z,91.73
2023-01-29T05:04:43.085Z,91.13
2023-01-29T05:07:52.355Z,91.40
2023-01-29T05:11:07.299Z,91.07
2023-01-29T05:14:12.676Z,91.10
2023-01-29T05:17:28.366Z,90.72
2023-01-29T05:20:40.336Z,90.50
2023-01-29T05:24:13.400Z,90.17
2023-01-29T05:27:37.719Z,90.48
2023-01-29T05:30:48.378Z,90.74
2023-01-29T05:33:57.352Z,90.02
2023-01-29T05:37:05.992Z,90.45
2023-01-29T05:40:20.349Z,89.83
2023-01-29T05:43:24.299Z,89.26
2023-01-29T05:46:39.365Z,89.34
2023-01-29T05:49:47.329Z,89.34
2023-01-29T05:53:05.277Z,88.56
2023-01-29T05:56:13.326Z,88.72
2023-01-29T05:59:21.964Z,88.38
2023-01-29T06:02:30.339Z,88.13
2023-01-29T06:05:52.465Z,88.22
2023-01-29T06:08:54.180Z,88.41
2023-01-29T06:12:10.293Z,88.36
2023-01-29T06:15:13.049Z,88.51
2023-01-29T06:18:27.334Z,88.49
2023-01-29T06:21:29.589Z,89.07
2023-01-29T06:24:44.364Z,89.38
2023-01-29T06:27:52.381Z,89.66
2023-01-29T06:31:23.806Z,89.82
2023-01-29T06:34:32.384Z,90.11
2023-01-29T06:37:40.974Z,90.50
2023-01-29T06:40:49.324Z,90.74
2023-01-29T06:43:57.849Z,91.28
2023-01-29T06:47:12.336Z,91.72
2023-01-29T06:50:20.336Z,92.10
2023-01-29T06:53:29.316Z,92.51
2023-01-29T06:56:37.308Z,92.53
2023-01-29T06:59:46.140Z,92.49
2023-01-29T07:02:56.325Z,92.86
2023-01-29T07:06:11.559Z,93.00
2023-01-29T07:09:20.293Z,92.88
2023-01-29T07:12:35.321Z,93.05
2023-01-29T07:15:44.196Z,92.75
2023-01-29T07:18:52.295Z,92.56
2023-01-29T07:22:00.881Z,92.70
2023-01-29T07:25:09.303Z,92.72
2023-01-29T07:28:19.095Z,92.66
2023-01-29T07:31:33.518Z,92.25
2023-01-29T07:34:41.340Z,92.09
2023-01-29T07:37:56.284Z,92.44
2023-01-29T07:41:04.303Z,92.42
2023-01-29T07:44:19.309Z,92.28
2023-01-29T07:47:21.338Z,91.43
2023-01-29T07:50:37.332Z,91.41
2023-01-29T07:53:39.106Z,91.23
2023-01-29T07:56:53.338Z,91.21
2023-01-29T07:59:55.159Z,90.40
2023-01-29T08:03:20.324Z,90.65
2023-01-29T08:06:22.123Z,90.21
2023-01-29T08:09:37.327Z,90.67
2023-01-29T08:12:45.372Z,90.52
2023-01-29T08:15:54.080Z,89.95
2023-01-29T08:19:03.343Z,89.46
2023-01-29T08:22:14.058Z,89.13
2023-01-29T08:25:22.915Z,88.47
2023-01-29T08:28:37.345Z,88.01
2023-01-29T08:31:39.163Z,87.43
2023-01-29T08:34:54.411Z,87.24
2023-01-29T08:37:58.280Z,87.07
2023-01-29T08:41:14.323Z,86.69
2023-01-29T08:44:16.040Z,86.56
2023-01-29T08:47:30.366Z,86.51
2023-01-29T08:50:39.309Z,86.69
2023-01-29T08:53:54.527Z,86.40
2023-01-29T08:57:05.358Z,86.46
2023-01-29T09:00:15.737Z,86.30
2023-01-29T09:03:24.360Z,86.22
2023-01-29T09:06:39.407Z,86.24
2023-01-29T09:09:41.171Z,86.59
2023-01-29T09:12:56.352Z,86.43
2023-01-29T09:16:00.142Z,85.66
2023-01-29T09:19:14.360Z,85.27
2023-01-29T09:25:56.323Z,85.01
2023-01-29T09:29:12.312Z,84.66
2023-01-29T09:32:52.061Z,84.62
2023-01-29T09:35:55.427Z,84.61
2023-01-29T09:39:03.979Z,84.38
2023-01-29T09:42:26.333Z,83.87
2023-01-29T09:46:12.405Z,83.85
2023-01-29T09:49:26.876Z,84.20
2023-01-29T09:52:46.314Z,83.62
2023-01-29T09:56:10.497Z,84.07
2023-01-29T09:59:20.316Z,83.56
2023-01-29T10:02:55.343Z,82.97
2023-01-29T10:06:27.739Z,83.02
2023-01-29T10:10:02.353Z,82.21
2023-01-29T10:13:28.444Z,82.32
2023-01-29T10:17:13.382Z,81.68
2023-01-29T10:20:53.329Z,81.43
2023-01-29T10:24:17.132Z,81.07
2023-01-29T10:27:37.333Z,80.91
2023-01-29T10:30:45.864Z,80.88
2023-01-29T10:34:07.563Z,80.41
2023-01-29T10:37:20.644Z,80.52
2023-01-29T10:40:36.369Z,80.55
2023-01-29T10:44:06.112Z,80.74
2023-01-29T10:47:45.411Z,80.38
2023-01-29T10:51:14.377Z,80.00
2023-01-29T10:54:33.233Z,80.22
2023-01-29T10:58:08.365Z,80.01
2023-01-29T11:01:23.446Z,80.05
2023-01-29T11:04:32.514Z,79.93
2023-01-29T11:07:47.408Z,79.89
2023-01-29T11:11:13.815Z,79.29
2023-01-29T11:37:29.372Z,76.26
2023-01-29T11:48:49.390Z,75.67
2023-01-29T11:57:04.376Z,74.77
2023-01-29T12:07:51.386Z,74.12
2023-01-29T12:26:57.410Z,72.19
2023-01-29T12:30:23.361Z,71.83
2023-01-29T12:33:49.309Z,71.73
2023-01-29T12:37:27.327Z,71.43
2023-01-29T12:40:37.357Z,71.19
2023-01-29T12:43:57.411Z,70.47
2023-01-29T12:47:09.452Z,70.68
2023-01-29T12:50:23.371Z,70.70
2023-01-29T12:53:41.383Z,70.05
2023-01-29T12:56:56.687Z,69.70
2023-01-29T13:00:12.344Z,69.73
2023-01-29T13:03:47.406Z,70.05
2023-01-29T13:07:01.388Z,70.09
2023-01-29T13:10:21.372Z,69.66
2023-01-29T13:13:36.824Z,69.45
2023-01-29T13:16:57.410Z,69.82
2023-01-29T13:20:11.346Z,70.08
2023-01-29T13:23:29.340Z,69.91
2023-01-29T13:26:31.611Z,70.13
2023-01-29T13:29:49.383Z,69.83
2023-01-29T13:33:00.644Z,70.15
2023-01-29T13:36:18.307Z,69.83
2023-01-29T13:39:40.331Z,69.98
2023-01-29T13:42:50.690Z,70.39
2023-01-29T13:46:01.413Z,70.97
2023-01-29T13:49:27.361Z,70.61
2023-01-29T13:52:48.323Z,70.17
2023-01-29T13:56:33.350Z,70.46
2023-01-29T13:59:50.981Z,70.85
2023-01-29T14:04:03.748Z,71.62
2023-01-29T14:07:49.316Z,72.55
2023-01-29T14:11:27.371Z,72.98
2023-01-29T14:14:58.393Z,73.58
2023-01-29T14:18:25.527Z,73.57
2023-01-29T14:21:38.387Z,74.01
2023-01-29T14:24:48.016Z,74.54
2023-01-29T14:28:04.469Z,74.98
2023-01-29T14:31:12.507Z,75.42
2023-01-29T14:34:59.730Z,76.00
2023-01-29T14:38:12.426Z,76.36
2023-01-29T14:41:31.020Z,76.73
2023-01-29T14:45:04.363Z,76.86
2023-01-29T14:48:29.728Z,77.11
2023-01-29T14:51:48.449Z,77.28
2023-01-29T14:54:52.516Z,77.42
2023-01-29T14:58:09.416Z,77.54
2023-01-29T15:01:41.416Z,77.71
2023-01-29T15:04:53.856Z,78.10
2023-01-29T15:08:07.362Z,78.32
2023-01-29T15:11:57.353Z,78.28
2023-01-29T15:15:50.445Z,78.06
2023-01-29T15:19:03.470Z,78.02
2023-01-29T15:22:21.961Z,78.18
2023-01-29T15:25:30.396Z,77.86
2023-01-29T15:28:39.708Z,78.64
2023-01-29T15:31:54.489Z,78.52
2023-01-29T15:35:15.844Z,78.95
2023-01-29T15:38:20.510Z,78.79
2023-01-29T15:41:35.397Z,78.91
2023-01-29T15:44:43.861Z,79.04
2023-01-29T15:48:06.386Z,78.96
2023-01-29T15:51:15.588Z,79.61
2023-01-29T15:54:34.563Z,80.47
2023-01-29T15:57:46.503Z,80.05
2023-01-29T16:01:29.686Z,79.58
2023-01-29T16:04:46.404Z,79.81
2023-01-29T16:07:50.107Z,79.06
2023-01-29T16:11:23.412Z,79.00
2023-01-29T16:14:25.988Z,79.19
2023-01-29T16:17:40.417Z,79.74
2023-01-29T16:21:20.452Z,79.93
2023-01-29T16:24:55.913Z,80.09
2023-01-29T16:28:05.484Z,79.90
2023-01-29T16:31:31.193Z,80.11
2023-01-29T16:34:44.387Z,79.68
2023-01-29T16:38:05.357Z,79.83
2023-01-29T16:41:14.875Z,80.12
2023-01-29T16:44:42.377Z,80.65
2023-01-29T16:47:44.378Z,79.96
2023-01-29T16:51:11.392Z,80.51
2023-01-29T16:54:31.392Z,80.90
2023-01-29T16:57:47.404Z,80.88
2023-01-29T17:01:15.429Z,80.80
2023-01-29T17:04:19.325Z,81.23
2023-01-29T17:07:36.405Z,80.96
2023-01-29T17:10:45.425Z,81.45
2023-01-29T17:14:03.468Z,82.16
2023-01-29T17:17:20.371Z,81.64
2023-01-29T17:20:43.456Z,81.35
2023-01-29T17:23:52.394Z,81.78
2023-01-29T17:27:02.114Z,81.69
2023-01-29T17:30:22.415Z,81.71
2023-01-29T17:33:25.636Z,81.71
2023-01-29T17:36:53.408Z,82.23
2023-01-29T17:40:05.009Z,81.79
2023-01-29T17:43:14.200Z,81.68
2023-01-29T17:46:24.409Z,82.39
2023-01-29T17:49:39.397Z,82.36
2023-01-29T17:52:48.415Z,82.87
2023-01-29T17:56:03.351Z,82.60
2023-01-29T17:59:33.399Z,82.97
2023-01-29T18:02:48.370Z,83.43
2023-01-29T18:05:50.944Z,83.53
2023-01-29T18:09:05.435Z,83.16
2023-01-29T18:12:17.372Z,83.03
2023-01-29T18:15:26.132Z,83.01
2023-01-29T18:18:36.416Z,83.57
2023-01-29T18:21:51.591Z,83.46
2023-01-29T18:24:59.372Z,83.16
2023-01-29T18:28:13.971Z,83.43
2023-01-29T18:31:22.483Z,83.41
2023-01-29T18:34:31.182Z,84.03
2023-01-29T18:37:39.416Z,83.64
2023-01-29T18:40:55.426Z,83.67
2023-01-29T18:43:57.349Z,83.80
2023-01-29T18:47:12.411Z,83.77
2023-01-29T18:50:20.392Z,83.86
2023-01-29T18:53:29.208Z,84.48
2023-01-29T18:56:37.446Z,83.42
2023-01-29T19:00:07.042Z,84.25
2023-01-29T19:03:17.417Z,83.79
2023-01-29T19:06:32.375Z,83.74
2023-01-29T19:09:42.427Z,83.92
2023-01-29T19:12:57.405Z,83.78
2023-01-29T19:16:07.872Z,84.01
2023-01-29T19:19:16.787Z,83.74
2023-01-29T19:22:25.909Z,83.73
2023-01-29T19:25:45.387Z,83.43
2023-01-29T19:28:54.399Z,84.00
2023-01-29T19:32:02.976Z,84.32
2023-01-29T19:35:18.761Z,84.08
2023-01-29T19:38:21.256Z,83.91
2023-01-29T19:41:36.356Z,83.50
2023-01-29T19:44:44.388Z,83.85
2023-01-29T19:47:59.439Z,83.57
2023-01-29T19:51:06.697Z,83.98
2023-01-29T19:54:21.360Z,84.46
2023-01-29T19:57:29.492Z,84.16
2023-01-29T20:00:38.054Z,83.92
2023-01-29T20:03:55.395Z,84.09
2023-01-29T20:07:05.459Z,84.69
2023-01-29T20:10:14.552Z,84.19
2023-01-29T20:13:29.410Z,84.35
2023-01-29T20:16:38.183Z,85.05
2023-01-29T20:19:52.405Z,84.75
2023-01-29T20:23:00.412Z,85.52
2023-01-29T20:26:12.995Z,84.92
2023-01-29T20:33:13.456Z,84.94
2023-01-29T20:36:22.263Z,84.88
2023-01-29T20:39:38.402Z,84.87
2023-01-29T20:42:47.200Z,84.97
2023-01-29T20:46:04.449Z,85.54
2023-01-29T20:49:13.434Z,85.71
2023-01-29T20:52:28.432Z,85.94
2023-01-29T20:55:37.444Z,86.56
2023-01-29T20:58:47.657Z,85.88
2023-01-29T21:01:55.453Z,85.76
2023-01-29T21:05:26.628Z,85.67
2023-01-29T21:08:35.385Z,85.70
2023-01-29T21:16:19.590Z,85.96
2023-01-29T21:19:34.420Z,85.96
2023-01-29T21:22:50.431Z,85.50
2023-01-29T21:26:06.584Z,85.41
2023-01-29T21:29:21.593Z,85.16
2023-01-29T21:32:24.617Z,84.75
2023-01-29T21:35:39.428Z,85.35
2023-01-29T21:38:48.389Z,85.56
2023-01-29T21:41:56.928Z,85.38
2023-01-29T21:45:06.420Z,85.80
2023-01-29T21:48:15.185Z,86.25
2023-01-29T21:51:29.387Z,86.10
2023-01-29T21:54:31.050Z,86.19
2023-01-29T21:57:45.416Z,86.33
2023-01-29T22:00:47.232Z,86.52
2023-01-29T22:04:01.409Z,86.34
2023-01-29T22:07:09.405Z,86.32
2023-01-29T22:10:19.262Z,86.26
2023-01-29T22:13:28.440Z,86.36
2023-01-29T22:16:37.027Z,86.83
2023-01-29T22:19:45.451Z,86.77
2023-01-29T22:23:07.383Z,87.05
2023-01-29T22:26:17.489Z,86.24
2023-01-29T22:29:32.368Z,85.54
2023-01-29T22:32:34.122Z,85.24
2023-01-29T22:35:48.381Z,84.87
2023-01-29T22:38:50.864Z,84.95
2023-01-29T22:42:05.457Z,85.53
2023-01-29T22:45:08.155Z,85.30
2023-01-29T22:48:22.461Z,85.63
2023-01-29T22:51:30.445Z,85.92
2023-01-29T22:54:41.150Z,85.48
2023-01-29T22:57:49.415Z,85.90
2023-01-29T23:00:58.160Z,85.37
2023-01-29T23:04:06.468Z,85.68
2023-01-29T23:07:21.699Z,85.52
2023-01-29T23:10:23.741Z,85.68
2023-01-29T23:13:38.507Z,85.41
2023-01-29T23:16:40.196Z,85.37
2023-01-29T23:19:54.402Z,85.07
2023-01-29T23:23:09.425Z,84.94
2023-01-29T23:26:18.316Z,85.62
2023-01-29T23:29:33.416Z,85.07
2023-01-29T23:32:35.224Z,85.52
2023-01-29T23:35:49.437Z,85.38
2023-01-29T23:38:51.432Z,86.34
2023-01-29T23:42:07.457Z,87.18
2023-01-29T23:45:16.557Z,87.82
2023-01-29T23:48:25.388Z,88.76
2023-01-29T23:51:34.450Z,88.58
2023-01-29T23:54:43.012Z,88.93
2023-01-29T23:57:57.402Z,89.67
